createdAt,value
2018-06-29T00:00:15.631Z,959.80
2018-06-29T00:01:15.613Z,959.79
2018-06-29T00:02:15.593Z,959.79
2018-06-29T00:03:15.573Z,959.79
2018-06-29T00:04:15.555Z,959.78
2018-06-29T00:05:15.538Z,959.75
2018-06-29T00:06:15.522Z,959.73
2018-06-29T00:07:15.500Z,959.75
2018-06-29T00:08:15.481Z,959.74
2018-06-29T00:09:15.463Z,959.72
2018-06-29T00:10:15.444Z,959.73
2018-06-29T00:11:15.426Z,959.67
2018-06-29T00:12:15.409Z,959.66
2018-06-29T00:13:16.140Z,959.65
2018-06-29T00:14:15.370Z,959.60
2018-06-29T00:15:15.352Z,959.63
2018-06-29T00:16:15.333Z,959.60
2018-06-29T00:17:15.316Z,959.61
2018-06-29T00:18:15.296Z,959.60
2018-06-29T00:19:15.278Z,959.61
2018-06-29T00:20:15.258Z,959.62
2018-06-29T00:21:15.240Z,959.62
2018-06-29T00:22:15.226Z,959.61
2018-06-29T00:23:15.203Z,959.60
2018-06-29T00:24:15.186Z,959.62
2018-06-29T00:25:15.167Z,959.65
2018-06-29T00:26:15.153Z,959.58
2018-06-29T00:27:15.130Z,959.60
2018-06-29T00:28:15.112Z,959.55
2018-06-29T00:29:15.093Z,959.54
2018-06-29T00:30:15.075Z,959.58
2018-06-29T00:31:15.055Z,959.54
2018-06-29T00:32:15.038Z,959.56
2018-06-29T00:33:15.019Z,959.56
2018-06-29T00:34:15.000Z,959.52
2018-06-29T00:35:14.981Z,959.53
2018-06-29T00:36:14.964Z,959.47
2018-06-29T00:37:14.996Z,959.45
2018-06-29T00:38:14.926Z,959.48
2018-06-29T00:39:15.707Z,959.47
2018-06-29T00:40:14.888Z,959.48
2018-06-29T00:41:14.871Z,959.49
2018-06-29T00:42:14.853Z,959.50
2018-06-29T00:43:14.833Z,959.51
2018-06-29T00:44:15.716Z,959.47
2018-06-29T00:45:14.849Z,959.48
2018-06-29T00:46:14.778Z,959.48
2018-06-29T00:47:14.759Z,959.45
2018-06-29T00:48:14.740Z,959.40
2018-06-29T00:49:14.721Z,959.43
2018-06-29T00:50:14.705Z,959.44
2018-06-29T00:51:14.686Z,959.45
2018-06-29T00:52:14.665Z,959.51
2018-06-29T00:53:14.647Z,959.48
2018-06-29T00:54:14.632Z,959.50
2018-06-29T00:55:14.677Z,959.52
2018-06-29T00:56:14.641Z,959.51
2018-06-29T00:57:14.573Z,959.50
2018-06-29T00:58:14.555Z,959.50
2018-06-29T00:59:14.536Z,959.49
2018-06-29T01:00:14.519Z,959.49
2018-06-29T01:01:14.498Z,959.46
2018-06-29T01:02:14.480Z,959.42
2018-06-29T01:03:14.463Z,959.47
2018-06-29T01:04:14.442Z,959.47
2018-06-29T01:05:14.427Z,959.42
2018-06-29T01:06:14.405Z,959.44
2018-06-29T01:07:14.386Z,959.44
2018-06-29T01:08:14.421Z,959.40
2018-06-29T01:09:14.349Z,959.43
2018-06-29T01:10:14.332Z,959.37
2018-06-29T01:11:14.313Z,959.40
2018-06-29T01:12:15.044Z,959.38
2018-06-29T01:13:14.277Z,959.41
2018-06-29T01:14:14.256Z,959.41
2018-06-29T01:15:14.237Z,959.42
2018-06-29T01:16:14.220Z,959.47
2018-06-29T01:17:14.201Z,959.44
2018-06-29T01:18:14.184Z,959.46
2018-06-29T01:19:14.164Z,959.44
2018-06-29T01:20:14.145Z,959.44
2018-06-29T01:21:14.126Z,959.46
2018-06-29T01:22:14.109Z,959.45
2018-06-29T01:23:14.090Z,959.48
2018-06-29T01:24:14.073Z,959.46
2018-06-29T01:25:14.054Z,959.45
2018-06-29T01:26:14.036Z,959.46
2018-06-29T01:27:14.015Z,959.45
2018-06-29T01:28:13.997Z,959.46
2018-06-29T01:29:13.979Z,959.42
2018-06-29T01:30:13.961Z,959.43
2018-06-29T01:31:13.946Z,959.42
2018-06-29T01:32:13.927Z,959.40
2018-06-29T01:33:13.905Z,959.40
2018-06-29T01:34:13.887Z,959.40
2018-06-29T01:35:13.868Z,959.42
2018-06-29T01:36:13.849Z,959.39
2018-06-29T01:37:13.832Z,959.40
2018-06-29T01:38:13.813Z,959.39
2018-06-29T01:39:13.793Z,959.40
2018-06-29T01:40:13.775Z,959.40
2018-06-29T01:41:13.760Z,959.40
2018-06-29T01:42:13.739Z,959.40
2018-06-29T01:43:13.719Z,959.37
2018-06-29T01:44:13.701Z,959.38
2018-06-29T01:45:13.684Z,959.42
2018-06-29T01:46:13.665Z,959.43
2018-06-29T01:47:13.647Z,959.42
2018-06-29T01:48:13.628Z,959.36
2018-06-29T01:49:13.610Z,959.39
2018-06-29T01:50:13.593Z,959.40
2018-06-29T01:51:13.573Z,959.43
2018-06-29T01:52:13.586Z,959.36
2018-06-29T01:53:13.536Z,959.39
2018-06-29T01:54:13.517Z,959.37
2018-06-29T01:55:13.498Z,959.34
2018-06-29T01:56:13.481Z,959.33
2018-06-29T01:57:13.465Z,959.28
2018-06-29T01:58:13.443Z,959.25
2018-06-29T01:59:13.424Z,959.30
2018-06-29T02:00:13.407Z,959.25
2018-06-29T02:01:13.387Z,959.21
2018-06-29T02:02:13.369Z,959.24
2018-06-29T02:03:13.349Z,959.25
2018-06-29T02:04:13.332Z,959.15
2018-06-29T02:05:13.312Z,959.19
2018-06-29T02:06:13.294Z,959.14
2018-06-29T02:07:13.276Z,959.12
2018-06-29T02:08:13.257Z,959.08
2018-06-29T02:09:13.239Z,959.05
2018-06-29T02:10:13.219Z,959.07
2018-06-29T02:11:13.200Z,959.03
2018-06-29T02:12:13.181Z,959.04
2018-06-29T02:13:13.178Z,959.04
2018-06-29T02:14:13.145Z,959.07
2018-06-29T02:15:13.125Z,959.05
2018-06-29T02:16:13.108Z,959.08
2018-06-29T02:17:13.089Z,959.08
2018-06-29T02:18:13.069Z,959.09
2018-06-29T02:19:13.049Z,959.08
2018-06-29T02:20:13.033Z,959.08
2018-06-29T02:21:13.013Z,959.08
2018-06-29T02:22:12.994Z,959.04
2018-06-29T02:23:12.975Z,959.03
2018-06-29T02:24:12.956Z,959.01
2018-06-29T02:25:12.938Z,959.05
2018-06-29T02:26:12.921Z,959.09
2018-06-29T02:27:12.901Z,959.07
2018-06-29T02:28:12.882Z,959.07
2018-06-29T02:29:12.863Z,959.07
2018-06-29T02:30:12.845Z,959.05
2018-06-29T02:31:12.826Z,959.00
2018-06-29T02:32:12.808Z,959.03
2018-06-29T02:33:12.789Z,958.99
2018-06-29T02:34:12.771Z,958.99
2018-06-29T02:35:12.753Z,958.99
2018-06-29T02:36:12.733Z,959.01
2018-06-29T02:37:12.721Z,958.99
2018-06-29T02:38:12.696Z,958.97
2018-06-29T02:39:12.680Z,958.93
2018-06-29T02:40:12.658Z,958.94
2018-06-29T02:41:12.642Z,958.93
2018-06-29T02:42:12.623Z,958.90
2018-06-29T02:43:12.603Z,958.88
2018-06-29T02:44:12.584Z,958.91
2018-06-29T02:45:12.567Z,958.85
2018-06-29T02:46:12.548Z,958.86
2018-06-29T02:47:14.080Z,958.86
2018-06-29T02:48:12.511Z,958.86
2018-06-29T02:49:12.495Z,958.84
2018-06-29T02:50:12.472Z,958.81
2018-06-29T02:51:12.455Z,958.90
2018-06-29T02:52:12.451Z,958.85
2018-06-29T02:53:12.419Z,958.86
2018-06-29T02:54:12.399Z,958.85
2018-06-29T02:55:12.380Z,958.89
2018-06-29T02:56:12.360Z,958.83
2018-06-29T02:57:12.342Z,958.79
2018-06-29T02:58:12.327Z,958.83
2018-06-29T02:59:12.303Z,958.83
2018-06-29T03:00:12.291Z,958.87
2018-06-29T03:01:12.267Z,958.88
2018-06-29T03:02:12.248Z,958.87
2018-06-29T03:03:12.229Z,958.90
2018-06-29T03:04:12.209Z,958.89
2018-06-29T03:05:12.193Z,958.89
2018-06-29T03:06:12.173Z,958.84
2018-06-29T03:07:12.153Z,958.86
2018-06-29T03:08:12.135Z,958.86
2018-06-29T03:09:12.117Z,958.85
2018-06-29T03:10:12.101Z,958.85
2018-06-29T03:11:12.078Z,958.85
2018-06-29T03:12:12.061Z,958.81
2018-06-29T03:13:12.043Z,958.88
2018-06-29T03:14:12.023Z,958.86
2018-06-29T03:15:12.005Z,958.88
2018-06-29T03:16:11.986Z,958.88
2018-06-29T03:17:11.966Z,958.87
2018-06-29T03:18:11.947Z,958.88
2018-06-29T03:19:11.927Z,958.85
2018-06-29T03:20:11.910Z,958.86
2018-06-29T03:21:11.894Z,958.88
2018-06-29T03:22:11.873Z,958.86
2018-06-29T03:23:11.852Z,958.86
2018-06-29T03:24:12.584Z,958.82
2018-06-29T03:25:11.849Z,958.83
2018-06-29T03:26:11.798Z,958.77
2018-06-29T03:27:11.779Z,958.79
2018-06-29T03:28:11.759Z,958.68
2018-06-29T03:29:11.741Z,958.71
2018-06-29T03:30:11.723Z,958.67
2018-06-29T03:31:11.703Z,958.69
2018-06-29T03:32:11.685Z,958.68
2018-06-29T03:33:11.665Z,958.71
2018-06-29T03:34:11.647Z,958.68
2018-06-29T03:35:12.378Z,958.70
2018-06-29T03:36:11.608Z,958.64
2018-06-29T03:37:11.590Z,958.66
2018-06-29T03:38:11.571Z,958.64
2018-06-29T03:39:11.552Z,958.64
2018-06-29T03:40:11.593Z,958.66
2018-06-29T03:41:11.516Z,958.67
2018-06-29T03:42:11.499Z,958.60
2018-06-29T03:43:11.477Z,958.68
2018-06-29T03:44:11.459Z,958.70
2018-06-29T03:45:11.441Z,958.76
2018-06-29T03:46:11.422Z,958.74
2018-06-29T03:47:11.403Z,958.80
2018-06-29T03:48:11.384Z,958.71
2018-06-29T03:49:11.370Z,958.74
2018-06-29T03:50:11.346Z,958.72
2018-06-29T03:51:12.078Z,958.72
2018-06-29T03:52:11.307Z,958.75
2018-06-29T03:53:11.289Z,958.77
2018-06-29T03:54:11.271Z,958.74
2018-06-29T03:55:11.251Z,958.75
2018-06-29T03:56:11.231Z,958.75
2018-06-29T03:57:11.213Z,958.72
2018-06-29T03:58:11.195Z,958.75
2018-06-29T03:59:11.175Z,958.77
2018-06-29T04:00:11.157Z,958.75
2018-06-29T04:01:11.139Z,958.76
2018-06-29T04:02:11.120Z,958.79
2018-06-29T04:03:11.117Z,958.74
2018-06-29T04:04:11.081Z,958.72
2018-06-29T04:05:11.064Z,958.84
2018-06-29T04:06:11.046Z,958.80
2018-06-29T04:07:11.775Z,958.82
2018-06-29T04:08:11.007Z,958.85
2018-06-29T04:09:10.988Z,958.85
2018-06-29T04:10:10.973Z,958.84
2018-06-29T04:11:10.951Z,958.83
2018-06-29T04:12:10.930Z,958.84
2018-06-29T04:13:10.912Z,958.80
2018-06-29T04:14:10.893Z,958.82
2018-06-29T04:15:10.876Z,958.80
2018-06-29T04:16:10.856Z,958.79
2018-06-29T04:17:10.837Z,958.80
2018-06-29T04:18:10.822Z,958.77
2018-06-29T04:19:10.799Z,958.80
2018-06-29T04:20:10.780Z,958.74
2018-06-29T04:21:10.761Z,958.77
2018-06-29T04:22:10.743Z,958.78
2018-06-29T04:23:10.724Z,958.74
2018-06-29T04:24:10.706Z,958.81
2018-06-29T04:25:10.687Z,958.79
2018-06-29T04:26:10.674Z,958.82
2018-06-29T04:27:10.648Z,958.81
2018-06-29T04:28:10.630Z,958.79
2018-06-29T04:29:10.612Z,958.80
2018-06-29T04:30:10.594Z,958.81
2018-06-29T04:31:10.573Z,958.83
2018-06-29T04:32:10.555Z,958.82
2018-06-29T04:33:10.538Z,958.78
2018-06-29T04:34:10.518Z,958.77
2018-06-29T04:35:10.500Z,958.78
2018-06-29T04:36:10.481Z,958.76
2018-06-29T04:37:10.468Z,958.72
2018-06-29T04:38:10.445Z,958.77
2018-06-29T04:39:10.424Z,958.75
2018-06-29T04:40:10.406Z,958.75
2018-06-29T04:41:10.387Z,958.73
2018-06-29T04:42:10.374Z,958.75
2018-06-29T04:43:10.350Z,958.77
2018-06-29T04:44:10.331Z,958.75
2018-06-29T04:45:10.315Z,958.76
2018-06-29T04:46:10.294Z,958.76
2018-06-29T04:47:10.275Z,958.78
2018-06-29T04:48:10.257Z,958.77
2018-06-29T04:49:10.278Z,958.79
2018-06-29T04:50:10.221Z,958.79
2018-06-29T04:51:10.202Z,958.85
2018-06-29T04:52:10.185Z,958.81
2018-06-29T04:53:10.165Z,958.80
2018-06-29T04:54:10.148Z,958.76
2018-06-29T04:55:10.128Z,958.77
2018-06-29T04:56:10.109Z,958.79
2018-06-29T04:57:10.091Z,958.78
2018-06-29T04:58:10.073Z,958.82
2018-06-29T04:59:10.056Z,958.81
2018-06-29T05:00:10.040Z,958.79
2018-06-29T05:01:10.021Z,958.78
2018-06-29T05:02:09.999Z,958.76
2018-06-29T05:03:09.981Z,958.80
2018-06-29T05:04:09.965Z,958.73
2018-06-29T05:05:09.945Z,958.79
2018-06-29T05:06:09.925Z,958.82
2018-06-29T05:07:09.907Z,958.80
2018-06-29T05:08:09.889Z,958.78
2018-06-29T05:09:09.870Z,958.76
2018-06-29T05:10:09.852Z,958.76
2018-06-29T05:11:09.837Z,958.79
2018-06-29T05:12:09.816Z,958.76
2018-06-29T05:13:09.799Z,958.79
2018-06-29T05:14:09.779Z,958.83
2018-06-29T05:15:09.761Z,958.78
2018-06-29T05:16:09.742Z,958.79
2018-06-29T05:17:09.727Z,958.78
2018-06-29T05:18:09.707Z,958.81
2018-06-29T05:19:09.688Z,958.78
2018-06-29T05:20:09.669Z,958.79
2018-06-29T05:21:09.658Z,958.80
2018-06-29T05:22:09.634Z,958.81
2018-06-29T05:23:09.615Z,958.82
2018-06-29T05:24:09.598Z,958.85
2018-06-29T05:25:09.581Z,958.87
2018-06-29T05:26:09.562Z,958.89
2018-06-29T05:27:09.543Z,958.88
2018-06-29T05:28:09.526Z,958.88
2018-06-29T05:29:09.508Z,958.88
2018-06-29T05:30:09.489Z,958.89
2018-06-29T05:31:10.974Z,958.88
2018-06-29T05:32:09.452Z,958.88
2018-06-29T05:33:09.436Z,958.90
2018-06-29T05:34:09.418Z,958.92
2018-06-29T05:35:09.400Z,958.92
2018-06-29T05:36:09.381Z,958.93
2018-06-29T05:37:12.368Z,958.90
2018-06-29T05:38:09.346Z,958.91
2018-06-29T05:39:09.330Z,958.91
2018-06-29T05:40:09.311Z,958.92
2018-06-29T05:41:09.292Z,958.93
2018-06-29T05:42:09.275Z,958.95
2018-06-29T05:43:09.255Z,958.90
2018-06-29T05:44:09.237Z,958.94
2018-06-29T05:45:09.221Z,958.93
2018-06-29T05:46:09.208Z,958.92
2018-06-29T05:47:09.186Z,958.93
2018-06-29T05:48:09.171Z,958.96
2018-06-29T05:49:09.158Z,958.93
2018-06-29T05:50:09.132Z,958.99
2018-06-29T05:51:09.112Z,958.96
2018-06-29T05:52:09.096Z,958.97
2018-06-29T05:53:09.207Z,958.94
2018-06-29T05:54:09.060Z,958.99
2018-06-29T05:55:09.042Z,958.96
2018-06-29T05:56:09.027Z,958.95
2018-06-29T05:57:09.005Z,958.98
2018-06-29T05:58:08.987Z,959.01
2018-06-29T05:59:08.969Z,958.99
2018-06-29T06:00:08.954Z,959.03
2018-06-29T06:01:08.933Z,959.01
2018-06-29T06:02:08.987Z,959.00
2018-06-29T06:03:08.899Z,959.03
2018-06-29T06:04:08.880Z,958.99
2018-06-29T06:05:08.862Z,959.00
2018-06-29T06:06:08.845Z,959.01
2018-06-29T06:07:08.826Z,958.94
2018-06-29T06:08:08.809Z,959.00
2018-06-29T06:09:08.794Z,958.94
2018-06-29T06:10:08.842Z,958.95
2018-06-29T06:11:08.756Z,958.93
2018-06-29T06:12:08.742Z,958.96
2018-06-29T06:13:08.720Z,959.03
2018-06-29T06:14:08.702Z,959.03
2018-06-29T06:15:08.684Z,959.01
2018-06-29T06:16:08.695Z,959.03
2018-06-29T06:17:08.650Z,959.08
2018-06-29T06:18:08.632Z,959.02
2018-06-29T06:19:08.615Z,959.03
2018-06-29T06:20:08.596Z,958.98
2018-06-29T06:21:08.578Z,958.96
2018-06-29T06:22:08.562Z,958.95
2018-06-29T06:23:08.544Z,958.99
2018-06-29T06:24:08.526Z,958.93
2018-06-29T06:25:08.509Z,958.98
2018-06-29T06:26:08.494Z,959.02
2018-06-29T06:27:08.473Z,959.00
2018-06-29T06:28:08.455Z,959.02
2018-06-29T06:29:08.438Z,959.00
2018-06-29T06:30:08.421Z,958.98
2018-06-29T06:31:08.406Z,959.07
2018-06-29T06:32:08.386Z,959.03
2018-06-29T06:33:08.428Z,959.01
2018-06-29T06:34:08.352Z,959.08
2018-06-29T06:35:08.340Z,959.06
2018-06-29T06:36:08.318Z,959.00
2018-06-29T06:37:08.299Z,959.05
2018-06-29T06:38:08.281Z,959.03
2018-06-29T06:39:08.263Z,959.08
2018-06-29T06:40:08.244Z,959.07
2018-06-29T06:41:08.227Z,959.11
2018-06-29T06:42:08.210Z,959.13
2018-06-29T06:43:08.191Z,959.12
2018-06-29T06:44:08.174Z,959.14
2018-06-29T06:45:08.158Z,959.11
2018-06-29T06:46:08.143Z,959.13
2018-06-29T06:47:08.124Z,959.10
2018-06-29T06:48:08.105Z,959.12
2018-06-29T06:49:08.090Z,959.12
2018-06-29T06:50:08.069Z,959.14
2018-06-29T06:51:08.050Z,959.10
2018-06-29T06:52:08.033Z,959.10
2018-06-29T06:53:08.020Z,959.12
2018-06-29T06:54:07.996Z,959.07
2018-06-29T06:55:07.980Z,959.08
2018-06-29T06:56:07.962Z,959.09
2018-06-29T06:57:07.943Z,959.08
2018-06-29T06:58:07.925Z,959.09
2018-06-29T06:59:07.907Z,959.08
2018-06-29T07:00:07.926Z,959.14
2018-06-29T07:01:07.876Z,959.08
2018-06-29T07:02:07.859Z,959.13
2018-06-29T07:03:07.837Z,959.08
2018-06-29T07:04:07.819Z,959.13
2018-06-29T07:05:07.803Z,959.14
2018-06-29T07:06:07.784Z,959.15
2018-06-29T07:07:07.766Z,959.19
2018-06-29T07:08:07.748Z,959.17
2018-06-29T07:09:07.731Z,959.17
2018-06-29T07:10:07.714Z,959.19
2018-06-29T07:11:07.695Z,959.19
2018-06-29T07:12:07.679Z,959.18
2018-06-29T07:13:07.660Z,959.17
2018-06-29T07:14:07.643Z,959.19
2018-06-29T07:15:07.627Z,959.20
2018-06-29T07:16:07.607Z,959.22
2018-06-29T07:17:07.590Z,959.20
2018-06-29T07:18:07.634Z,959.17
2018-06-29T07:19:07.554Z,959.19
2018-06-29T07:20:07.537Z,959.14
2018-06-29T07:21:07.519Z,959.19
2018-06-29T07:22:07.502Z,959.14
2018-06-29T07:23:07.484Z,959.13
2018-06-29T07:24:07.468Z,959.16
2018-06-29T07:25:07.450Z,959.17
2018-06-29T07:26:07.433Z,959.12
2018-06-29T07:27:07.414Z,959.14
2018-06-29T07:28:07.397Z,959.08
2018-06-29T07:29:07.381Z,959.14
2018-06-29T07:30:07.465Z,959.13
2018-06-29T07:31:07.345Z,959.15
2018-06-29T07:32:07.328Z,959.16
2018-06-29T07:33:08.812Z,959.15
2018-06-29T07:34:07.292Z,959.12
2018-06-29T07:35:07.275Z,959.22
2018-06-29T07:36:07.257Z,959.23
2018-06-29T07:37:07.240Z,959.24
2018-06-29T07:38:07.230Z,959.29
2018-06-29T07:39:09.459Z,959.24
2018-06-29T07:40:07.188Z,959.30
2018-06-29T07:41:07.172Z,959.31
2018-06-29T07:42:07.154Z,959.27
2018-06-29T07:43:07.137Z,959.29
2018-06-29T07:44:07.120Z,959.31
2018-06-29T07:45:07.854Z,959.31
2018-06-29T07:46:07.086Z,959.28
2018-06-29T07:47:07.070Z,959.35
2018-06-29T07:48:07.053Z,959.30
2018-06-29T07:49:07.035Z,959.30
2018-06-29T07:50:07.020Z,959.33
2018-06-29T07:51:07.001Z,959.33
2018-06-29T07:52:06.984Z,959.30
2018-06-29T07:53:06.968Z,959.33
2018-06-29T07:54:06.951Z,959.31
2018-06-29T07:55:06.934Z,959.31
2018-06-29T07:56:06.938Z,959.23
2018-06-29T07:57:06.900Z,959.32
2018-06-29T07:58:06.954Z,959.33
2018-06-29T07:59:06.867Z,959.38
2018-06-29T08:00:06.851Z,959.33
2018-06-29T08:01:06.833Z,959.31
2018-06-29T08:02:06.817Z,959.32
2018-06-29T08:03:06.800Z,959.33
2018-06-29T08:04:06.783Z,959.35
2018-06-29T08:05:06.767Z,959.33
2018-06-29T08:06:06.750Z,959.39
2018-06-29T08:07:06.732Z,959.37
2018-06-29T08:08:06.716Z,959.41
2018-06-29T08:09:06.698Z,959.40
2018-06-29T08:10:06.681Z,959.41
2018-06-29T08:11:06.663Z,959.44
2018-06-29T08:12:07.399Z,959.44
2018-06-29T08:13:06.632Z,959.44
2018-06-29T08:14:06.613Z,959.39
2018-06-29T08:15:06.597Z,959.39
2018-06-29T08:16:06.584Z,959.39
2018-06-29T08:17:06.563Z,959.41
2018-06-29T08:18:06.544Z,959.44
2018-06-29T08:19:06.528Z,959.43
2018-06-29T08:20:06.512Z,959.40
2018-06-29T08:21:06.497Z,959.42
2018-06-29T08:22:06.476Z,959.42
2018-06-29T08:23:07.210Z,959.43
2018-06-29T08:24:06.441Z,959.46
2018-06-29T08:25:06.424Z,959.43
2018-06-29T08:26:06.408Z,959.43
2018-06-29T08:27:06.389Z,959.42
2018-06-29T08:28:06.375Z,959.43
2018-06-29T08:29:06.357Z,959.40
2018-06-29T08:30:06.340Z,959.44
2018-06-29T08:31:06.321Z,959.42
2018-06-29T08:32:06.305Z,959.39
2018-06-29T08:33:06.287Z,959.37
2018-06-29T08:34:06.270Z,959.40
2018-06-29T08:35:06.254Z,959.34
2018-06-29T08:36:06.236Z,959.39
2018-06-29T08:37:06.221Z,959.36
2018-06-29T08:38:06.203Z,959.40
2018-06-29T08:39:06.187Z,959.37
2018-06-29T08:40:06.169Z,959.37
2018-06-29T08:41:06.152Z,959.35
2018-06-29T08:42:06.140Z,959.39
2018-06-29T08:43:06.124Z,959.39
2018-06-29T08:44:06.112Z,959.37
2018-06-29T08:45:06.083Z,959.34
2018-06-29T08:46:06.068Z,959.35
2018-06-29T08:47:06.113Z,959.36
2018-06-29T08:48:06.041Z,959.37
2018-06-29T08:49:06.019Z,959.36
2018-06-29T08:50:06.001Z,959.36
2018-06-29T08:51:05.983Z,959.36
2018-06-29T08:52:05.980Z,959.39
2018-06-29T08:53:05.951Z,959.38
2018-06-29T08:54:05.935Z,959.41
2018-06-29T08:55:05.967Z,959.43
2018-06-29T08:56:05.902Z,959.41
2018-06-29T08:57:05.887Z,959.45
2018-06-29T08:58:05.870Z,959.45
2018-06-29T08:59:05.855Z,959.47
2018-06-29T09:00:05.835Z,959.45
2018-06-29T09:01:05.822Z,959.48
2018-06-29T09:02:05.803Z,959.47
2018-06-29T09:03:05.785Z,959.49
2018-06-29T09:04:05.770Z,959.51
2018-06-29T09:05:07.255Z,959.52
2018-06-29T09:06:05.737Z,959.49
2018-06-29T09:07:05.721Z,959.49
2018-06-29T09:08:05.704Z,959.54
2018-06-29T09:09:05.688Z,959.54
2018-06-29T09:10:05.673Z,959.54
2018-06-29T09:11:07.261Z,959.52
2018-06-29T09:12:05.640Z,959.49
2018-06-29T09:13:05.623Z,959.54
2018-06-29T09:14:05.609Z,959.52
2018-06-29T09:15:05.591Z,959.51
2018-06-29T09:16:05.576Z,959.53
2018-06-29T09:17:08.564Z,959.55
2018-06-29T09:18:05.545Z,959.54
2018-06-29T09:19:05.578Z,959.54
2018-06-29T09:20:05.514Z,959.52
2018-06-29T09:21:05.498Z,959.49
2018-06-29T09:22:05.484Z,959.46
2018-06-29T09:23:06.218Z,959.48
2018-06-29T09:24:05.451Z,959.51
2018-06-29T09:25:05.436Z,959.49
2018-06-29T09:26:05.422Z,959.47
2018-06-29T09:27:05.407Z,959.46
2018-06-29T09:28:05.390Z,959.49
2018-06-29T09:29:05.376Z,959.47
2018-06-29T09:30:05.400Z,959.46
2018-06-29T09:31:05.344Z,959.45
2018-06-29T09:32:05.329Z,959.48
2018-06-29T09:33:05.316Z,959.44
2018-06-29T09:34:05.301Z,959.38
2018-06-29T09:35:05.303Z,959.42
2018-06-29T09:36:05.269Z,959.43
2018-06-29T09:37:05.255Z,959.39
2018-06-29T09:38:05.244Z,959.42
2018-06-29T09:39:05.224Z,959.37
2018-06-29T09:40:05.209Z,959.36
2018-06-29T09:41:05.193Z,959.39
2018-06-29T09:42:05.178Z,959.37
2018-06-29T09:43:05.162Z,959.39
2018-06-29T09:44:05.148Z,959.41
2018-06-29T09:45:05.133Z,959.38
2018-06-29T09:46:05.124Z,959.37
2018-06-29T09:47:05.102Z,959.39
2018-06-29T09:48:05.203Z,959.34
2018-06-29T09:49:05.073Z,959.36
2018-06-29T09:50:05.059Z,959.37
2018-06-29T09:51:05.042Z,959.34
2018-06-29T09:52:05.027Z,959.38
2018-06-29T09:53:05.014Z,959.36
2018-06-29T09:54:05.067Z,959.38
2018-06-29T09:55:04.982Z,959.37
2018-06-29T09:56:04.968Z,959.36
2018-06-29T09:57:04.952Z,959.32
2018-06-29T09:58:04.938Z,959.32
2018-06-29T09:59:04.922Z,959.38
2018-06-29T10:00:04.907Z,959.35
2018-06-29T10:01:04.954Z,959.32
2018-06-29T10:02:04.878Z,959.38
2018-06-29T10:03:04.862Z,959.34
2018-06-29T10:04:04.848Z,959.37
2018-06-29T10:05:04.836Z,959.38
2018-06-29T10:06:04.820Z,959.32
2018-06-29T10:07:04.808Z,959.34
2018-06-29T10:08:04.793Z,959.34
2018-06-29T10:09:04.775Z,959.28
2018-06-29T10:10:04.761Z,959.32
2018-06-29T10:11:04.746Z,959.31
2018-06-29T10:12:04.731Z,959.38
2018-06-29T10:13:04.718Z,959.32
2018-06-29T10:14:04.709Z,959.29
2018-06-29T10:15:05.440Z,959.33
2018-06-29T10:16:04.675Z,959.29
2018-06-29T10:17:04.661Z,959.27
2018-06-29T10:18:04.646Z,959.35
2018-06-29T10:19:04.632Z,959.46
2018-06-29T10:20:04.720Z,959.46
2018-06-29T10:21:04.605Z,959.42
2018-06-29T10:22:04.634Z,959.35
2018-06-29T10:23:04.578Z,959.43
2018-06-29T10:24:04.562Z,959.36
2018-06-29T10:25:04.604Z,959.35
2018-06-29T10:26:05.285Z,959.41
2018-06-29T10:27:04.517Z,959.42
2018-06-29T10:28:04.589Z,959.36
2018-06-29T10:29:04.490Z,959.40
2018-06-29T10:30:04.476Z,959.38
2018-06-29T10:31:04.464Z,959.34
2018-06-29T10:32:04.447Z,959.37
2018-06-29T10:33:04.435Z,959.35
2018-06-29T10:34:04.420Z,959.37
2018-06-29T10:35:04.406Z,959.37
2018-06-29T10:36:04.439Z,959.28
2018-06-29T10:37:04.378Z,959.23
2018-06-29T10:38:04.366Z,959.22
2018-06-29T10:39:04.350Z,959.31
2018-06-29T10:40:04.336Z,959.25
2018-06-29T10:41:04.324Z,959.19
2018-06-29T10:42:04.310Z,959.26
2018-06-29T10:43:04.295Z,959.26
2018-06-29T10:44:04.281Z,959.27
2018-06-29T10:45:04.364Z,959.31
2018-06-29T10:46:04.255Z,959.34
2018-06-29T10:47:04.240Z,959.32
2018-06-29T10:48:04.227Z,959.25
2018-06-29T10:49:04.217Z,959.29
2018-06-29T10:50:04.199Z,959.33
2018-06-29T10:51:04.185Z,959.34
2018-06-29T10:52:04.172Z,959.27
2018-06-29T10:53:04.158Z,959.31
2018-06-29T10:54:04.146Z,959.29
2018-06-29T10:55:04.132Z,959.20
2018-06-29T10:56:04.118Z,959.19
2018-06-29T10:57:04.106Z,959.19
2018-06-29T10:58:04.091Z,959.28
2018-06-29T10:59:04.078Z,959.30
2018-06-29T11:00:04.064Z,959.33
2018-06-29T11:01:04.052Z,959.34
2018-06-29T11:02:04.039Z,959.34
2018-06-29T11:03:04.028Z,959.26
2018-06-29T11:04:04.011Z,959.19
2018-06-29T11:05:03.998Z,959.22
2018-06-29T11:06:03.985Z,959.22
2018-06-29T11:07:03.970Z,959.24
2018-06-29T11:08:03.957Z,959.26
2018-06-29T11:09:03.944Z,959.25
2018-06-29T11:10:03.935Z,959.25
2018-06-29T11:11:03.917Z,959.24
2018-06-29T11:12:05.410Z,959.23
2018-06-29T11:13:03.891Z,959.23
2018-06-29T11:14:03.878Z,959.23
2018-06-29T11:15:03.865Z,959.20
2018-06-29T11:16:03.852Z,959.26
2018-06-29T11:17:03.838Z,959.26
2018-06-29T11:18:03.825Z,959.21
2018-06-29T11:19:03.810Z,959.12
2018-06-29T11:20:03.800Z,959.13
2018-06-29T11:21:03.785Z,959.14
2018-06-29T11:22:03.773Z,959.11
2018-06-29T11:23:03.759Z,959.12
2018-06-29T11:24:03.746Z,959.13
2018-06-29T11:25:03.735Z,959.19
2018-06-29T11:26:03.720Z,959.11
2018-06-29T11:27:03.707Z,959.11
2018-06-29T11:28:03.694Z,959.16
2018-06-29T11:29:03.682Z,959.17
2018-06-29T11:30:03.670Z,959.20
2018-06-29T11:31:03.655Z,959.16
2018-06-29T11:32:03.645Z,959.20
2018-06-29T11:33:03.628Z,959.25
2018-06-29T11:34:03.615Z,959.24
2018-06-29T11:35:03.600Z,959.19
2018-06-29T11:36:03.588Z,959.22
2018-06-29T11:37:03.576Z,959.21
2018-06-29T11:38:03.562Z,959.26
2018-06-29T11:39:03.548Z,959.26
2018-06-29T11:40:03.535Z,959.19
2018-06-29T11:41:03.526Z,959.12
2018-06-29T11:42:03.510Z,959.14
2018-06-29T11:43:03.496Z,959.18
2018-06-29T11:44:03.524Z,959.15
2018-06-29T11:45:03.470Z,959.07
2018-06-29T11:46:03.457Z,959.11
2018-06-29T11:47:03.445Z,959.12
2018-06-29T11:48:03.431Z,959.11
2018-06-29T11:49:03.418Z,959.12
2018-06-29T11:50:03.406Z,959.07
2018-06-29T11:51:03.392Z,959.14
2018-06-29T11:52:03.380Z,959.15
2018-06-29T11:53:03.372Z,959.16
2018-06-29T11:54:03.353Z,959.24
2018-06-29T11:55:03.339Z,959.29
2018-06-29T11:56:03.329Z,959.27
2018-06-29T11:57:03.314Z,959.20
2018-06-29T11:58:03.301Z,959.15
2018-06-29T11:59:03.286Z,959.17
2018-06-29T12:00:08.529Z,959.23
2018-06-29T12:01:03.259Z,959.26
2018-06-29T12:02:03.252Z,959.23
2018-06-29T12:03:03.234Z,959.23
2018-06-29T12:04:03.220Z,959.25
2018-06-29T12:05:03.207Z,959.27
2018-06-29T12:06:03.193Z,959.28
2018-06-29T12:07:03.195Z,959.30
2018-06-29T12:08:03.165Z,959.29
2018-06-29T12:09:03.152Z,959.30
2018-06-29T12:10:03.141Z,959.25
2018-06-29T12:11:03.126Z,959.21
2018-06-29T12:12:03.113Z,959.20
2018-06-29T12:13:03.104Z,959.17
2018-06-29T12:14:03.088Z,959.14
2018-06-29T12:15:03.075Z,959.14
2018-06-29T12:16:03.061Z,959.11
2018-06-29T12:17:03.048Z,959.14
2018-06-29T12:18:03.035Z,959.14
2018-06-29T12:19:03.023Z,959.17
2018-06-29T12:20:03.011Z,959.09
2018-06-29T12:21:03.000Z,959.22
2018-06-29T12:22:06.740Z,959.15
2018-06-29T12:23:02.972Z,959.12
2018-06-29T12:24:02.959Z,959.15
2018-06-29T12:25:02.949Z,959.18
2018-06-29T12:26:02.939Z,959.08
2018-06-29T12:27:02.926Z,959.07
2018-06-29T12:28:05.311Z,959.02